Yale, Iowa
Current Conditions -  °F | °C
As of 10:35 PM on Friday 24 Oct 2014 (Local Time) from KPRO Reporting Station
Haze Haze  
Wind Chill: 56°   Ceiling: Unl
Heat Index: 56°   Visibility: 5mi
Dew Point: 55°   Wind: 8mph
Humidity: 96%   Direction: 280°W
Pressure: 29.97"   Gusts: NA
Location:  41.78°N, 94.36°W
Report Text: KPRO 250335Z AUTO 28007KT 5SM BR CLR 13/13 A2997 RMK AO2 T01320125
Loading
Personal Weather Stations






























Interactive Weather Map New forecast layout! Learn more

10-Day Weather Forecast

Advertisements
Track Severe Weather on mobile